Airfield :
LOGIN :

Register | Disclaimer

   EN    FR    IT 

 










Legend :    VFR   Marginal VFR   IFR   Intensive IFR   Very Intensive IFR
Visi :
Ceiling :
>= 8 km
>= 3000ft
5 to 8 km
1000 to 3000 ft
1500m to 5 km
500 to 1000 ft
800 to 1500m
200 to 500 ft
< 800m
< 200 ft
Symbols :   Thunderstorms  Fog  Heavy snow  Heavy precipitations  Wind > 20 kt
SIGMETs :     Misc.  Thunderstorms  Icing  Turbulence  Mountain Waves  Volcanic Ashes







- Airport Elevation : 768 ft
- IATA code : MXP


LIMC - Milano Malpensa

CURRENT METAR :
  • 241520Z 35010KT 9999 SCT040 BKN070 13/10 Q1025 NOSIG

EXPIRED METARs :
  • 241450Z 36011KT 9999 SCT040 BKN070 13/10 Q1025 NOSIG
  • 241420Z 35009KT 9999 SCT040 BKN080 13/11 Q1025 NOSIG
  • 241350Z 36009KT 9999 BKN040 BKN080 12/10 Q1025 NOSIG
  • 241320Z 35007KT 9999 BKN050 BKN080 12/11 Q1025 NOSIG
  • 241250Z 34007KT 9999 OVC050 12/11 Q1025 NOSIG

TAF TAF LIMC
Valid from the 24 at 12:00 until the 25 at 18:00 UTC


241100Z 2412/2518 01007KT 9999 SCT030 BKN060
TEMPO 2500/2507 3000 BCFG
TEMPO 2515/2518 4000 SHRA
No reported NOTAMs for that airfield.



MET'MAP, your aeronautical weather chart ! - Copyright ORBIFLY December 2007 - Disclaimer

ORBIFLY MET'MAP TEAM :

Programming & Development : Alexandra Zaïnal
Concept & Development : Baudouin d'Aumeries
Co-Development & Prog : Marc-Olivier Méhu
Technical & hardware support : Manuel Goepfert

Contact : metmap@orbifly.com




SOURCES & CREDITS :

   NOAA